Pagina principale
METAR-TAF:

METAR-TAF

Aeroporti :

Aeroporto di Vientiane-Wattay

Vientiane, Laos

latitudine: 17-57N, longitudine: 102-34E, altezza: 171 m

Osservazione

Il bollettino è stato emesso 31 minuti fa, alle 04:00 UTC
Vento 4 kt da nord/nord-est
Temperature 31°C
Umidità 63%
Pressione 1014 hPa
Visibilità: 6000 m
Poco nuvoloso ad un'altezza di 2000 ft

METAR: VLVT 210400Z 02004KT 6000 FEW020 31/23 Q1014 NOSIG

Ora: 11:31 (04:31 UTC)

Previsione

Il bollettino è stato emesso 5 ore e 31 minuti fa, alle 23:00 UTC
Previsione valida dal 21 alle 00 UTC al 21 alle 24 UTC
Vento 4 kt da est/nord-est
Visibilità: 8000 m
Poco nuvoloso ad un'altezza di 2000 ft
Nubi sparse ad un'altezza di 5000 ft
Poco nuvoloso ad un'altezza di 20000 ft

TAF: VLVT 202300Z 2100/2124 06004KT 8000 FEW020 SCT050 FEW200

Osservazioni e previsioni meteorologiche di più di 4000 aeroporti (messaggi METAR e TAF).

Le stazioni disponibili sono rappresentate dai dischi gialli e rossi sulla carta.

Puntare il mouse per vedere il nome della stazione.

Clicca sopra per visualizzare le osservazioni e previsioni meteorologiche.

Per cambiare la mappa : fare clic sui pulsanti verdi con una croce nera per ingrandire, il pulsante verde con un trattino per diminuire, o sulla freccia verde per le mappe adiacenti.


METAR-TAF: